createdAt,value
2023-02-05T00:01:41.760Z,33.85
2023-02-05T00:04:11.199Z,33.10
2023-02-05T00:06:40.510Z,34.03
2023-02-05T00:09:10.084Z,33.98
2023-02-05T00:11:39.480Z,34.00
2023-02-05T00:14:08.768Z,33.38
2023-02-05T00:16:38.728Z,32.90
2023-02-05T00:19:08.092Z,34.25
2023-02-05T00:21:37.340Z,32.23
2023-02-05T00:24:06.858Z,32.63
2023-02-05T00:26:36.132Z,30.15
2023-02-05T00:29:06.258Z,31.10
2023-02-05T00:31:35.631Z,34.73
2023-02-05T00:34:05.479Z,33.67
2023-02-05T00:36:34.781Z,36.48
2023-02-05T00:39:04.975Z,35.40
2023-02-05T00:41:34.236Z,32.15
2023-02-05T00:44:03.724Z,30.20
2023-02-05T00:46:32.974Z,33.58
2023-02-05T00:49:02.374Z,32.30
2023-02-05T00:51:31.625Z,31.30
2023-02-05T00:54:01.483Z,32.23
2023-02-05T00:56:30.730Z,32.33
2023-02-05T00:59:00.435Z,33.23
2023-02-05T01:01:29.792Z,33.00
2023-02-05T01:03:59.298Z,32.00
2023-02-05T01:06:28.579Z,32.25
2023-02-05T01:08:58.293Z,34.65
2023-02-05T01:11:27.531Z,32.55
2023-02-05T01:13:56.935Z,33.40
2023-02-05T01:16:26.274Z,32.30
2023-02-05T01:18:56.861Z,32.40
2023-02-05T01:21:26.345Z,31.68
2023-02-05T01:23:56.641Z,33.98
2023-02-05T01:26:25.961Z,31.25
2023-02-05T01:28:55.475Z,30.12
2023-02-05T01:31:25.863Z,31.93
2023-02-05T01:33:55.349Z,31.12
2023-02-05T01:36:24.580Z,31.87
2023-02-05T01:38:54.853Z,29.35
2023-02-05T01:41:24.333Z,27.85
2023-02-05T01:44:14.333Z,30.40
2023-02-05T01:46:46.350Z,25.20
2023-02-05T01:49:19.063Z,25.62
2023-02-05T01:51:49.275Z,26.93
2023-02-05T01:54:19.451Z,28.32
2023-02-05T01:56:51.826Z,22.82
2023-02-05T01:59:25.899Z,20.27
2023-02-05T02:01:55.599Z,19.05
2023-02-05T02:04:40.212Z,17.10
2023-02-05T02:07:12.043Z,15.32
2023-02-05T02:09:43.485Z,12.93
2023-02-05T02:12:14.575Z,10.80
2023-02-05T02:14:46.313Z,10.28
2023-02-05T02:17:16.009Z,8.90
2023-02-05T02:20:03.551Z,7.65
2023-02-05T02:22:58.729Z,7.62
2023-02-05T02:25:34.209Z,5.53
2023-02-05T02:28:16.190Z,5.62
2023-02-05T02:30:48.994Z,5.67
2023-02-05T02:33:39.622Z,5.30
2023-02-05T02:36:14.359Z,5.15
2023-02-05T02:39:03.183Z,3.92
2023-02-05T02:41:35.655Z,4.10
2023-02-05T02:44:12.579Z,3.30
2023-02-05T02:46:45.141Z,3.87
2023-02-05T02:49:17.840Z,3.47
2023-02-05T02:51:48.183Z,3.37
2023-02-05T02:54:19.636Z,3.90
2023-02-05T02:56:50.315Z,3.67
2023-02-05T02:59:21.935Z,3.27
2023-02-05T03:01:56.964Z,3.80
2023-02-05T03:04:29.657Z,3.27
2023-02-05T03:07:04.589Z,3.27
2023-02-05T03:09:39.907Z,4.17
2023-02-05T03:12:09.337Z,3.90
2023-02-05T03:14:39.187Z,3.45
2023-02-05T03:17:08.952Z,3.77
2023-02-05T03:19:38.236Z,3.98
2023-02-05T03:22:07.904Z,4.12
2023-02-05T03:24:38.088Z,4.58
2023-02-05T03:27:07.721Z,4.12
2023-02-05T03:29:41.404Z,4.30
2023-02-05T03:32:35.138Z,4.30
2023-02-05T03:35:28.882Z,5.12
2023-02-05T03:38:09.024Z,4.40
2023-02-05T03:40:51.404Z,5.03
2023-02-05T03:43:39.393Z,4.70
2023-02-05T03:46:15.977Z,4.95
2023-02-05T03:49:07.050Z,5.53
2023-02-05T03:51:43.009Z,5.20
2023-02-05T03:54:43.510Z,5.50
2023-02-05T03:57:23.640Z,6.97
2023-02-05T03:59:54.512Z,5.72
2023-02-05T04:02:24.491Z,5.17
2023-02-05T04:04:55.609Z,5.83
2023-02-05T04:07:24.977Z,5.58
2023-02-05T04:09:54.656Z,5.97
2023-02-05T04:12:24.532Z,5.83
2023-02-05T04:14:54.782Z,5.95
2023-02-05T04:17:24.144Z,6.05
2023-02-05T04:19:53.647Z,6.65
2023-02-05T04:22:23.021Z,6.62
2023-02-05T04:24:53.695Z,7.08
2023-02-05T04:27:23.166Z,7.55
2023-02-05T04:29:53.552Z,8.23
2023-02-05T04:32:23.689Z,8.70
2023-02-05T04:34:53.393Z,8.90
2023-02-05T04:37:22.802Z,8.45
2023-02-05T04:39:52.515Z,9.35
2023-02-05T04:42:22.134Z,10.40
2023-02-05T04:44:52.972Z,10.05
2023-02-05T04:47:22.438Z,9.73
2023-02-05T04:49:51.698Z,10.00
2023-02-05T04:52:21.268Z,11.03
2023-02-05T04:54:50.577Z,11.08
2023-02-05T04:57:19.810Z,10.48
2023-02-05T04:59:49.160Z,11.63
2023-02-05T05:02:18.869Z,11.85
2023-02-05T05:04:48.241Z,12.47
2023-02-05T05:07:17.691Z,12.95
2023-02-05T05:09:46.975Z,12.03
2023-02-05T05:12:16.385Z,12.47
2023-02-05T05:14:45.655Z,11.75
2023-02-05T05:17:14.958Z,11.45
2023-02-05T05:19:44.565Z,10.23
2023-02-05T05:22:13.793Z,10.60
2023-02-05T05:24:43.571Z,8.05
2023-02-05T05:27:12.776Z,5.97
2023-02-05T05:29:42.131Z,4.80
2023-02-05T05:32:11.398Z,4.00
2023-02-05T05:34:40.876Z,2.95
2023-02-05T05:37:10.109Z,2.52
2023-02-05T05:39:57.308Z,2.17
2023-02-05T05:42:44.481Z,2.10
2023-02-05T05:45:13.714Z,2.00
2023-02-05T05:47:43.080Z,2.35
2023-02-05T05:50:12.432Z,2.22
2023-02-05T05:52:41.875Z,1.85
2023-02-05T05:55:11.113Z,1.87
2023-02-05T05:57:40.362Z,1.60
2023-02-05T06:00:11.235Z,1.60
2023-02-05T06:02:44.821Z,2.00
2023-02-05T06:05:14.505Z,2.08
2023-02-05T06:07:43.839Z,1.77
2023-02-05T06:10:13.051Z,1.85
2023-02-05T06:12:42.316Z,1.90
2023-02-05T06:15:12.944Z,2.22
2023-02-05T06:17:42.410Z,1.50
2023-02-05T06:20:12.521Z,1.65
2023-02-05T06:22:42.393Z,1.22
2023-02-05T06:25:11.890Z,1.67
2023-02-05T06:27:41.271Z,1.20
2023-02-05T06:30:11.921Z,1.40
2023-02-05T06:32:41.588Z,1.30
2023-02-05T06:35:11.108Z,1.10
2023-02-05T06:37:48.074Z,1.10
2023-02-05T06:40:12.138Z,1.62
2023-02-05T06:42:41.663Z,1.40
2023-02-05T06:45:11.676Z,1.30
2023-02-05T06:47:41.167Z,1.05
2023-02-05T06:50:10.780Z,1.20
2023-02-05T06:52:40.055Z,1.20
2023-02-05T06:55:09.477Z,1.07
2023-02-05T06:57:39.005Z,1.80
2023-02-05T07:00:09.481Z,1.50
2023-02-05T07:02:38.926Z,1.65
2023-02-05T07:05:08.823Z,1.52
2023-02-05T07:07:38.429Z,1.20
2023-02-05T07:10:09.558Z,1.52
2023-02-05T07:12:38.906Z,1.65
2023-02-05T07:15:08.827Z,1.90
2023-02-05T07:17:39.639Z,1.57
2023-02-05T07:20:09.673Z,1.90
2023-02-05T07:22:39.122Z,1.45
2023-02-05T07:25:09.336Z,1.77
2023-02-05T07:27:38.798Z,1.50
2023-02-05T07:30:09.435Z,1.82
2023-02-05T07:32:38.730Z,1.40
2023-02-05T07:35:08.095Z,1.77
2023-02-05T07:37:39.475Z,1.80
2023-02-05T07:40:10.042Z,1.90
2023-02-05T07:42:39.340Z,1.67
2023-02-05T07:45:10.459Z,1.92
2023-02-05T07:47:39.853Z,1.98
2023-02-05T07:50:09.520Z,1.55
2023-02-05T07:52:38.794Z,2.27
2023-02-05T07:55:08.669Z,1.87
2023-02-05T07:57:38.331Z,1.77
2023-02-05T08:00:09.886Z,1.87
2023-02-05T08:02:42.052Z,2.00
2023-02-05T08:05:11.686Z,2.40
2023-02-05T08:07:40.974Z,2.45
2023-02-05T08:10:12.116Z,2.35
2023-02-05T08:12:41.412Z,2.00
2023-02-05T08:15:11.356Z,1.70
2023-02-05T08:17:40.753Z,2.10
2023-02-05T08:20:11.927Z,2.40
2023-02-05T08:22:43.405Z,2.30
2023-02-05T08:25:14.923Z,2.37
2023-02-05T08:27:46.398Z,2.17
2023-02-05T08:30:17.420Z,2.60
2023-02-05T08:32:50.460Z,2.58
2023-02-05T08:35:20.061Z,2.90
2023-02-05T08:37:49.642Z,2.60
2023-02-05T08:40:19.696Z,2.72
2023-02-05T08:42:50.654Z,2.22
2023-02-05T08:45:20.845Z,2.30
2023-02-05T08:47:50.392Z,3.08
2023-02-05T08:50:21.388Z,2.55
2023-02-05T08:52:51.292Z,2.52
2023-02-05T08:55:20.658Z,2.92
2023-02-05T08:57:49.985Z,3.17
2023-02-05T09:00:21.056Z,2.77
2023-02-05T09:02:51.068Z,2.85
2023-02-05T09:05:20.446Z,2.65
2023-02-05T09:07:49.850Z,2.98
2023-02-05T09:10:19.518Z,3.42
2023-02-05T09:12:49.126Z,3.10
2023-02-05T09:15:18.580Z,3.35
2023-02-05T09:17:47.852Z,2.95
2023-02-05T09:20:17.450Z,4.15
2023-02-05T09:22:46.651Z,3.45
2023-02-05T09:25:16.287Z,3.98
2023-02-05T09:27:45.538Z,3.60
2023-02-05T09:30:15.570Z,3.80
2023-02-05T09:32:45.536Z,3.50
2023-02-05T09:35:15.157Z,3.50
2023-02-05T09:37:44.443Z,3.20
2023-02-05T09:40:22.485Z,3.55
2023-02-05T09:43:03.832Z,3.33
2023-02-05T09:45:42.269Z,3.33
2023-02-05T09:48:17.380Z,3.33
2023-02-05T09:50:46.704Z,4.15
2023-02-05T09:53:19.069Z,3.52
2023-02-05T09:55:49.168Z,3.70
2023-02-05T09:58:24.450Z,3.35
2023-02-05T10:01:05.401Z,3.62
2023-02-05T10:03:56.303Z,3.77
2023-02-05T10:06:34.538Z,3.72
2023-02-05T10:09:25.413Z,3.08
2023-02-05T10:12:06.792Z,3.80
2023-02-05T10:14:47.304Z,3.10
2023-02-05T10:17:31.745Z,3.15
2023-02-05T10:20:09.953Z,2.77
2023-02-05T10:23:05.302Z,3.17
2023-02-05T10:25:56.468Z,3.58
2023-02-05T10:29:05.008Z,3.80
2023-02-05T10:31:37.665Z,3.50
2023-02-05T10:34:16.214Z,3.42
2023-02-05T10:36:49.255Z,3.87
2023-02-05T10:39:21.661Z,3.58
2023-02-05T10:42:09.192Z,3.33
2023-02-05T10:44:41.494Z,3.10
2023-02-05T10:47:16.668Z,3.37
2023-02-05T10:49:58.481Z,3.47
2023-02-05T10:52:27.769Z,3.30
2023-02-05T10:54:57.016Z,3.10
2023-02-05T10:57:26.728Z,3.12
2023-02-05T11:00:05.973Z,2.70
2023-02-05T11:02:40.272Z,3.08
2023-02-05T11:05:18.882Z,2.95
2023-02-05T11:07:51.046Z,3.15
2023-02-05T11:10:43.324Z,3.20
2023-02-05T11:13:37.759Z,3.33
2023-02-05T11:16:30.669Z,3.22
2023-02-05T11:19:02.054Z,3.10
2023-02-05T11:21:58.624Z,2.87
2023-02-05T11:24:30.548Z,3.42
2023-02-05T11:27:18.471Z,2.98
2023-02-05T11:29:47.780Z,3.27
2023-02-05T11:32:26.657Z,2.80
2023-02-05T11:34:59.203Z,3.47
2023-02-05T11:37:29.091Z,3.20
2023-02-05T11:39:58.842Z,2.92
2023-02-05T11:42:28.062Z,3.60
2023-02-05T11:45:02.342Z,3.17
2023-02-05T11:47:37.189Z,4.00
2023-02-05T11:50:09.563Z,3.47
2023-02-05T11:52:39.530Z,3.17
2023-02-05T11:55:10.679Z,3.08
2023-02-05T11:57:42.117Z,2.92
2023-02-05T12:00:16.398Z,3.17
2023-02-05T12:02:48.633Z,2.83
2023-02-05T12:05:21.333Z,3.50
2023-02-05T12:07:53.224Z,3.33
2023-02-05T12:10:29.219Z,2.47
2023-02-05T12:13:22.972Z,2.72
2023-02-05T12:16:04.069Z,3.10
2023-02-05T12:18:51.254Z,3.15
2023-02-05T12:21:41.468Z,2.47
2023-02-05T12:24:29.593Z,2.77
2023-02-05T12:27:04.733Z,2.72
2023-02-05T12:29:54.314Z,2.55
2023-02-05T12:32:29.659Z,2.60
2023-02-05T12:35:21.701Z,2.30
2023-02-05T12:38:21.076Z,3.17
2023-02-05T12:41:05.102Z,3.10
2023-02-05T12:43:37.822Z,2.52
2023-02-05T12:46:13.445Z,2.12
2023-02-05T12:49:01.903Z,2.77
2023-02-05T12:51:55.528Z,2.55
2023-02-05T12:54:36.859Z,2.05
2023-02-05T12:57:16.056Z,2.67
2023-02-05T12:59:47.659Z,1.85
2023-02-05T13:02:26.053Z,2.70
2023-02-05T13:05:13.721Z,2.58
2023-02-05T13:07:49.449Z,2.22
2023-02-05T13:10:22.139Z,2.50
2023-02-05T13:12:54.763Z,2.25
2023-02-05T13:15:26.567Z,2.02
2023-02-05T13:18:17.153Z,2.65
2023-02-05T13:21:07.579Z,2.62
2023-02-05T13:23:55.382Z,2.75
2023-02-05T13:26:48.131Z,2.70
2023-02-05T13:29:18.935Z,2.50
2023-02-05T13:31:53.036Z,2.72
2023-02-05T13:34:23.216Z,2.35
2023-02-05T13:37:19.460Z,2.60
2023-02-05T13:40:12.928Z,2.55
2023-02-05T13:43:06.146Z,2.60
2023-02-05T13:45:53.324Z,2.10
2023-02-05T13:48:47.397Z,2.25
2023-02-05T13:51:37.829Z,2.87
2023-02-05T13:54:19.500Z,2.00
2023-02-05T13:57:03.865Z,2.35
2023-02-05T13:59:39.263Z,2.70
2023-02-05T14:02:30.212Z,3.05
2023-02-05T14:05:00.589Z,3.00
2023-02-05T14:07:39.401Z,3.15
2023-02-05T14:10:11.661Z,3.10
2023-02-05T14:12:41.150Z,3.15
2023-02-05T14:15:20.528Z,2.30
2023-02-05T14:17:53.244Z,3.02
2023-02-05T14:20:42.555Z,2.30
2023-02-05T14:23:21.123Z,3.20
2023-02-05T14:26:11.567Z,2.72
2023-02-05T14:28:49.220Z,3.25
2023-02-05T14:31:41.066Z,3.15
2023-02-05T14:34:31.734Z,2.65
2023-02-05T14:37:01.368Z,2.55
2023-02-05T14:39:38.190Z,2.75
2023-02-05T14:42:10.994Z,2.92
2023-02-05T14:44:42.161Z,3.30
2023-02-05T14:47:22.535Z,2.85
2023-02-05T14:49:53.122Z,2.60
2023-02-05T14:52:40.604Z,2.87
2023-02-05T14:55:20.369Z,2.40
2023-02-05T14:58:03.287Z,3.80
2023-02-05T15:00:38.752Z,2.98
2023-02-05T15:03:20.041Z,2.80
2023-02-05T15:05:55.759Z,3.08
2023-02-05T15:08:46.528Z,2.40
2023-02-05T15:11:52.499Z,2.80
2023-02-05T15:14:26.574Z,2.65
2023-02-05T15:17:14.466Z,3.27
2023-02-05T15:19:46.408Z,3.30
2023-02-05T15:22:35.152Z,3.40
2023-02-05T15:25:07.633Z,2.83
2023-02-05T15:27:49.485Z,2.80
2023-02-05T15:30:28.548Z,3.33
2023-02-05T15:33:06.881Z,3.08
2023-02-05T15:35:39.812Z,2.65
2023-02-05T15:38:21.296Z,3.62
2023-02-05T15:40:52.356Z,3.42
2023-02-05T15:43:27.121Z,3.95
2023-02-05T15:46:05.342Z,3.62
2023-02-05T15:48:36.899Z,3.22
2023-02-05T15:51:29.804Z,3.12
2023-02-05T15:56:32.821Z,3.20
2023-02-05T15:59:08.345Z,3.70
2023-02-05T16:01:44.952Z,3.72
2023-02-05T16:04:32.161Z,3.62
2023-02-05T16:07:02.295Z,3.33
2023-02-05T16:09:32.595Z,3.30
2023-02-05T16:12:07.747Z,3.77
2023-02-05T16:14:37.693Z,3.72
2023-02-05T16:17:16.113Z,3.50
2023-02-05T16:19:57.745Z,3.65
2023-02-05T16:22:42.192Z,3.50
2023-02-05T16:25:45.961Z,4.75
2023-02-05T16:28:41.792Z,4.60
2023-02-05T16:31:16.410Z,4.05
2023-02-05T16:33:52.272Z,3.60
2023-02-05T16:36:24.468Z,3.72
2023-02-05T16:38:59.987Z,3.40
2023-02-05T16:41:32.460Z,3.67
2023-02-05T16:44:07.694Z,4.22
2023-02-05T16:46:37.838Z,3.80
2023-02-05T16:49:28.702Z,3.87
2023-02-05T16:51:58.010Z,4.10
2023-02-05T16:54:38.823Z,3.75
2023-02-05T16:57:15.944Z,3.77
2023-02-05T16:59:56.859Z,3.75
2023-02-05T17:02:29.627Z,3.92
2023-02-05T17:05:01.488Z,4.42
2023-02-05T17:07:31.672Z,5.53
2023-02-05T17:10:19.498Z,4.42
2023-02-05T17:13:01.436Z,4.83
2023-02-05T17:15:33.292Z,3.72
2023-02-05T17:18:06.508Z,5.08
2023-02-05T17:20:36.575Z,4.78
2023-02-05T17:23:09.753Z,4.53
2023-02-05T17:25:55.042Z,4.20
2023-02-05T17:28:29.904Z,4.85
2023-02-05T17:30:59.219Z,4.47
2023-02-05T17:33:29.728Z,4.53
2023-02-05T17:35:59.518Z,4.35
2023-02-05T17:38:28.848Z,3.90
2023-02-05T17:41:16.012Z,3.87
2023-02-05T17:43:45.774Z,4.47
2023-02-05T17:46:15.960Z,4.37
2023-02-05T17:48:45.359Z,4.42
2023-02-05T17:51:17.785Z,4.25
2023-02-05T17:53:47.988Z,4.20
2023-02-05T17:56:19.137Z,3.90
2023-02-05T17:58:50.135Z,3.92
2023-02-05T18:01:19.918Z,4.20
2023-02-05T18:03:49.936Z,3.37
2023-02-05T18:06:19.894Z,3.83
2023-02-05T18:08:49.539Z,3.87
2023-02-05T18:11:18.840Z,4.00
2023-02-05T18:13:48.152Z,3.92
2023-02-05T18:16:17.510Z,4.20
2023-02-05T18:18:47.745Z,3.90
2023-02-05T18:21:17.610Z,4.40
2023-02-05T18:23:52.829Z,4.60
2023-02-05T18:26:22.968Z,3.90
2023-02-05T18:28:52.223Z,4.53
2023-02-05T18:31:22.051Z,4.40
2023-02-05T18:33:52.810Z,4.12
2023-02-05T18:36:22.675Z,3.87
2023-02-05T18:38:51.948Z,4.58
2023-02-05T18:41:26.384Z,4.45
2023-02-05T18:43:56.971Z,3.77
2023-02-05T18:46:27.342Z,4.53
2023-02-05T18:48:56.780Z,4.08
2023-02-05T18:51:26.512Z,3.98
2023-02-05T18:53:55.849Z,4.25
2023-02-05T18:56:27.625Z,4.15
2023-02-05T18:59:01.185Z,5.03
2023-02-05T19:01:32.446Z,4.62
2023-02-05T19:04:07.591Z,4.45
2023-02-05T19:06:37.015Z,3.92
2023-02-05T19:09:06.394Z,4.15
2023-02-05T19:11:38.038Z,4.30
2023-02-05T19:14:08.044Z,3.77
2023-02-05T19:16:38.209Z,3.80
2023-02-05T19:19:08.384Z,4.92
2023-02-05T19:21:37.923Z,3.92
2023-02-05T19:24:09.824Z,4.20
2023-02-05T19:26:42.691Z,3.98
2023-02-05T19:29:17.165Z,4.55
2023-02-05T19:31:47.091Z,3.95
2023-02-05T19:34:16.909Z,4.37
2023-02-05T19:36:46.286Z,4.42
2023-02-05T19:39:16.447Z,4.33
2023-02-05T19:41:45.957Z,4.42
2023-02-05T19:44:15.598Z,4.00
2023-02-05T19:46:45.496Z,4.95
2023-02-05T19:49:17.892Z,4.67
2023-02-05T19:51:48.612Z,4.28
2023-02-05T19:54:21.214Z,3.98
2023-02-05T19:56:50.000Z,4.92
2023-02-05T19:59:21.256Z,5.30
2023-02-05T20:01:50.715Z,4.55
2023-02-05T20:04:25.858Z,5.20
2023-02-05T20:06:59.761Z,4.72
2023-02-05T20:09:31.284Z,4.90
2023-02-05T20:12:01.183Z,4.37
2023-02-05T20:14:30.700Z,3.92
2023-02-05T20:16:59.980Z,5.08
2023-02-05T20:19:29.884Z,4.42
2023-02-05T20:21:59.231Z,4.08
2023-02-05T20:24:28.555Z,4.72
2023-02-05T20:26:58.583Z,4.05
2023-02-05T20:29:46.036Z,5.00
2023-02-05T20:32:15.574Z,4.40
2023-02-05T20:34:47.010Z,4.37
2023-02-05T20:37:17.584Z,4.40
2023-02-05T20:39:48.583Z,4.97
2023-02-05T20:42:18.457Z,4.40
2023-02-05T20:44:47.895Z,4.65
2023-02-05T20:47:17.707Z,4.87
2023-02-05T20:49:47.034Z,5.17
2023-02-05T20:52:16.558Z,4.80
2023-02-05T20:54:45.833Z,4.65
2023-02-05T20:57:15.595Z,5.58
2023-02-05T20:59:44.846Z,5.72
2023-02-05T21:02:14.728Z,5.08
2023-02-05T21:04:44.078Z,5.35
2023-02-05T21:07:13.870Z,5.47
2023-02-05T21:09:43.157Z,4.97
2023-02-05T21:12:12.903Z,4.78
2023-02-05T21:14:42.239Z,5.17
2023-02-05T21:17:11.643Z,4.58
2023-02-05T21:19:41.432Z,5.90
2023-02-05T21:22:10.884Z,5.28
2023-02-05T21:24:40.565Z,4.90
2023-02-05T21:27:09.962Z,4.58
2023-02-05T21:29:39.800Z,5.87
2023-02-05T21:32:09.047Z,4.92
2023-02-05T21:34:38.708Z,4.42
2023-02-05T21:37:08.077Z,4.33
2023-02-05T21:39:37.605Z,5.37
2023-02-05T21:42:07.029Z,5.45
2023-02-05T21:44:36.301Z,4.53
2023-02-05T21:47:05.883Z,5.05
2023-02-05T21:49:35.177Z,6.30
2023-02-05T21:52:14.076Z,6.00
2023-02-05T21:54:51.224Z,5.08
2023-02-05T21:57:23.876Z,5.65
2023-02-05T21:59:54.098Z,5.45
2023-02-05T22:02:27.128Z,5.40
2023-02-05T22:05:12.140Z,5.30
2023-02-05T22:07:48.104Z,5.62
2023-02-05T22:10:25.811Z,5.22
2023-02-05T22:12:57.741Z,5.78
2023-02-05T22:15:31.402Z,5.35
2023-02-05T22:18:09.159Z,4.58
2023-02-05T22:20:41.030Z,5.70
2023-02-05T22:23:12.662Z,6.87
2023-02-05T22:25:48.034Z,5.10
2023-02-05T22:28:25.959Z,6.28
2023-02-05T22:31:03.700Z,5.08
2023-02-05T22:33:34.757Z,5.25
2023-02-05T22:36:05.670Z,5.50
2023-02-05T22:38:36.783Z,6.03
2023-02-05T22:41:10.500Z,6.72
2023-02-05T22:43:40.198Z,6.50
2023-02-05T22:46:12.538Z,5.85
2023-02-05T22:48:43.858Z,6.10
2023-02-05T22:51:15.528Z,5.60
2023-02-05T22:53:45.044Z,6.00
2023-02-05T22:56:16.855Z,6.55
2023-02-05T22:58:47.881Z,6.00
2023-02-05T23:01:26.144Z,6.20
2023-02-05T23:03:56.499Z,6.75
2023-02-05T23:06:28.105Z,6.65
2023-02-05T23:08:59.472Z,6.25
2023-02-05T23:11:31.062Z,5.95
2023-02-05T23:14:01.937Z,5.80
2023-02-05T23:16:36.995Z,5.83
2023-02-05T23:19:09.391Z,6.75
2023-02-05T23:21:40.085Z,6.40
2023-02-05T23:24:10.195Z,6.55
2023-02-05T23:26:44.126Z,6.53
2023-02-05T23:29:15.702Z,6.28
2023-02-05T23:31:45.493Z,5.57
2023-02-05T23:34:15.089Z,6.45
2023-02-05T23:36:44.644Z,6.25
2023-02-05T23:39:13.964Z,6.15
2023-02-05T23:41:43.195Z,6.03
2023-02-05T23:44:20.744Z,6.22
2023-02-05T23:46:50.993Z,5.83
2023-02-05T23:49:21.947Z,6.75
2023-02-05T23:51:53.638Z,6.15
2023-02-05T23:54:24.009Z,7.03
2023-02-05T23:56:53.648Z,6.10
2023-02-05T23:59:23.172Z,6.42
